createdAt,value
2022-10-22T00:00:03.385Z,13.35
2022-10-22T00:02:29.973Z,13.05
2022-10-22T00:04:57.349Z,14.18
2022-10-22T00:07:24.942Z,13.50
2022-10-22T00:09:51.864Z,12.30
2022-10-22T00:12:19.805Z,12.20
2022-10-22T00:14:46.961Z,12.45
2022-10-22T00:17:14.168Z,12.90
2022-10-22T00:19:41.235Z,12.73
2022-10-22T00:22:08.904Z,13.10
2022-10-22T00:24:37.170Z,12.77
2022-10-22T00:27:04.462Z,12.82
2022-10-22T00:29:31.274Z,11.60
2022-10-22T00:31:58.276Z,12.13
2022-10-22T00:34:26.799Z,12.25
2022-10-22T00:36:54.506Z,11.00
2022-10-22T00:39:23.997Z,11.45
2022-10-22T00:41:53.198Z,12.93
2022-10-22T00:44:57.692Z,10.60
2022-10-22T00:47:27.755Z,11.20
2022-10-22T00:49:55.982Z,10.82
2022-10-22T00:52:23.355Z,15.70
2022-10-22T00:54:51.231Z,10.90
2022-10-22T00:57:19.666Z,10.85
2022-10-22T00:59:47.475Z,10.50
2022-10-22T01:02:14.563Z,12.57
2022-10-22T01:04:41.993Z,14.43
2022-10-22T01:07:17.043Z,15.48
2022-10-22T01:09:57.310Z,15.60
2022-10-22T01:12:39.306Z,14.60
2022-10-22T01:15:26.866Z,13.70
2022-10-22T01:18:02.842Z,12.73
2022-10-22T01:21:07.482Z,12.95
2022-10-22T01:24:06.283Z,12.25
2022-10-22T01:27:00.440Z,11.68
2022-10-22T01:29:52.258Z,12.90
2022-10-22T01:32:23.580Z,12.07
2022-10-22T01:35:00.317Z,12.55
2022-10-22T01:37:30.270Z,11.77
2022-10-22T01:39:59.987Z,13.75
2022-10-22T01:42:26.734Z,13.93
2022-10-22T01:44:53.714Z,14.55
2022-10-22T01:47:36.938Z,14.82
2022-10-22T01:50:16.469Z,14.32
2022-10-22T01:52:46.315Z,15.85
2022-10-22T01:55:42.808Z,15.65
2022-10-22T01:58:37.671Z,15.48
2022-10-22T02:01:23.173Z,14.52
2022-10-22T02:04:01.768Z,13.93
2022-10-22T02:06:29.804Z,13.27
2022-10-22T02:08:57.690Z,13.70
2022-10-22T02:11:24.259Z,14.10
2022-10-22T02:13:55.602Z,15.10
2022-10-22T02:16:29.028Z,14.45
2022-10-22T02:18:58.459Z,12.18
2022-10-22T02:21:26.737Z,11.95
2022-10-22T02:23:53.292Z,11.77
2022-10-22T02:26:25.416Z,12.98
2022-10-22T02:29:13.290Z,12.55
2022-10-22T02:31:44.157Z,11.23
2022-10-22T02:34:15.667Z,12.40
2022-10-22T02:36:46.788Z,11.80
2022-10-22T02:41:49.716Z,11.23
2022-10-22T02:44:20.032Z,12.35
2022-10-22T02:46:46.994Z,11.68
2022-10-22T02:49:13.541Z,10.77
2022-10-22T02:51:40.581Z,9.93
2022-10-22T02:54:07.156Z,10.35
2022-10-22T02:56:34.593Z,10.02
2022-10-22T02:59:01.111Z,9.60
2022-10-22T03:01:28.107Z,10.27
2022-10-22T03:03:54.718Z,9.30
2022-10-22T03:06:22.145Z,9.27
2022-10-22T03:08:48.722Z,8.27
2022-10-22T03:11:15.720Z,7.95
2022-10-22T03:13:42.664Z,8.55
2022-10-22T03:16:09.758Z,7.93
2022-10-22T03:18:36.379Z,8.38
2022-10-22T03:21:27.675Z,7.90
2022-10-22T03:23:55.378Z,7.03
2022-10-22T03:26:22.171Z,6.50
2022-10-22T03:28:49.463Z,7.05
2022-10-22T03:31:16.498Z,7.55
2022-10-22T03:33:43.439Z,7.03
2022-10-22T03:36:10.601Z,6.90
2022-10-22T03:38:38.751Z,6.45
2022-10-22T03:41:06.456Z,5.38
2022-10-22T03:43:35.665Z,5.80
2022-10-22T03:46:02.657Z,5.35
2022-10-22T03:48:29.402Z,5.63
2022-10-22T03:50:56.359Z,5.70
2022-10-22T03:53:22.948Z,6.28
2022-10-22T03:55:49.610Z,5.93
2022-10-22T03:58:16.600Z,5.57
2022-10-22T04:00:43.158Z,5.07
2022-10-22T04:03:10.115Z,5.45
2022-10-22T04:05:36.666Z,4.82
2022-10-22T04:08:06.313Z,4.97
2022-10-22T04:10:32.926Z,5.30
2022-10-22T04:12:59.881Z,6.00
2022-10-22T04:15:28.093Z,5.93
2022-10-22T04:17:55.146Z,7.43
2022-10-22T04:20:22.169Z,7.68
2022-10-22T04:22:49.215Z,6.70
2022-10-22T04:25:15.782Z,5.90
2022-10-22T04:27:42.787Z,5.40
2022-10-22T04:30:10.523Z,5.75
2022-10-22T04:32:37.487Z,5.75
2022-10-22T04:35:04.402Z,5.75
2022-10-22T04:37:32.695Z,6.80
2022-10-22T04:39:59.731Z,7.22
2022-10-22T04:42:26.357Z,7.75
2022-10-22T04:44:52.888Z,8.73
2022-10-22T04:47:19.855Z,7.82
2022-10-22T04:49:46.386Z,8.45
2022-10-22T04:52:12.936Z,8.38
2022-10-22T04:54:39.926Z,7.93
2022-10-22T04:57:06.556Z,7.53
2022-10-22T04:59:33.627Z,7.40
2022-10-22T05:02:00.588Z,7.82
2022-10-22T05:04:27.626Z,8.40
2022-10-22T05:06:54.201Z,7.93
2022-10-22T05:09:21.215Z,7.38
2022-10-22T05:11:50.399Z,8.18
2022-10-22T05:14:23.343Z,8.25
2022-10-22T05:16:50.695Z,8.23
2022-10-22T05:19:21.091Z,8.52
2022-10-22T05:21:48.042Z,8.95
2022-10-22T05:24:14.608Z,9.45
2022-10-22T05:26:41.923Z,9.30
2022-10-22T05:29:08.589Z,9.10
2022-10-22T05:31:35.818Z,7.85
2022-10-22T05:34:02.481Z,9.32
2022-10-22T05:36:29.098Z,10.60
2022-10-22T05:38:58.831Z,9.93
2022-10-22T05:41:27.313Z,9.23
2022-10-22T05:43:58.801Z,10.02
2022-10-22T05:46:28.336Z,9.30
2022-10-22T05:48:57.204Z,8.02
2022-10-22T05:51:25.710Z,8.10
2022-10-22T05:53:54.373Z,7.65
2022-10-22T05:56:22.008Z,7.10
2022-10-22T05:58:49.125Z,7.30
2022-10-22T06:01:22.138Z,6.00
2022-10-22T06:03:49.056Z,6.07
2022-10-22T06:06:39.322Z,6.03
2022-10-22T06:09:18.226Z,5.90
2022-10-22T06:11:45.984Z,6.70
2022-10-22T06:14:13.503Z,5.93
2022-10-22T06:16:40.701Z,6.25
2022-10-22T06:19:09.176Z,7.53
2022-10-22T06:21:36.217Z,7.03
2022-10-22T06:24:02.774Z,7.18
2022-10-22T06:26:29.835Z,7.75
2022-10-22T06:28:57.822Z,9.27
2022-10-22T06:31:26.326Z,10.25
2022-10-22T06:33:53.515Z,10.32
2022-10-22T06:36:23.064Z,10.95
2022-10-22T06:38:54.247Z,9.93
2022-10-22T06:41:24.280Z,9.93
2022-10-22T06:43:54.869Z,9.43
2022-10-22T06:46:24.667Z,9.82
2022-10-22T06:48:58.524Z,10.32
2022-10-22T06:51:26.718Z,8.80
2022-10-22T06:53:55.367Z,8.95
2022-10-22T06:56:24.860Z,7.82
2022-10-22T06:58:53.722Z,7.90
2022-10-22T07:01:25.484Z,8.18
2022-10-22T07:03:53.600Z,7.53
2022-10-22T07:06:22.377Z,7.70
2022-10-22T07:08:49.476Z,9.00
2022-10-22T07:11:21.855Z,7.97
2022-10-22T07:13:49.762Z,9.20
2022-10-22T07:16:18.366Z,9.38
2022-10-22T07:18:46.434Z,9.95
2022-10-22T07:21:16.301Z,9.43
2022-10-22T07:23:44.385Z,9.43
2022-10-22T07:26:13.618Z,9.60
2022-10-22T07:28:41.440Z,10.95
2022-10-22T07:31:11.038Z,11.38
2022-10-22T07:33:38.214Z,11.32
2022-10-22T07:36:08.713Z,10.95
2022-10-22T07:38:35.895Z,11.90
2022-10-22T07:41:03.787Z,12.18
2022-10-22T07:43:30.366Z,12.13
2022-10-22T07:45:57.359Z,10.85
2022-10-22T07:48:23.956Z,10.57
2022-10-22T07:50:51.719Z,10.05
2022-10-22T07:53:18.966Z,12.25
2022-10-22T07:55:49.307Z,10.77
2022-10-22T07:58:19.927Z,11.80
2022-10-22T08:00:47.208Z,10.68
2022-10-22T08:03:16.364Z,11.02
2022-10-22T08:05:46.298Z,10.90
2022-10-22T08:08:14.718Z,9.35
2022-10-22T08:10:41.711Z,10.77
2022-10-22T08:13:09.022Z,11.27
2022-10-22T08:15:35.804Z,13.55
2022-10-22T08:18:02.826Z,13.45
2022-10-22T08:20:29.799Z,16.42
2022-10-22T08:22:56.857Z,16.38
2022-10-22T08:25:23.567Z,18.27
2022-10-22T08:27:50.123Z,16.85
2022-10-22T08:30:17.560Z,16.52
2022-10-22T08:32:44.218Z,17.25
2022-10-22T08:35:14.150Z,16.70
2022-10-22T08:37:43.710Z,15.30
2022-10-22T08:40:19.484Z,14.50
2022-10-22T08:42:51.908Z,18.52
2022-10-22T08:45:33.187Z,17.55
2022-10-22T08:48:18.296Z,16.15
2022-10-22T08:50:51.424Z,17.33
2022-10-22T08:53:27.465Z,17.35
2022-10-22T08:55:54.724Z,15.65
2022-10-22T08:58:29.431Z,17.15
2022-10-22T09:01:00.569Z,14.73
2022-10-22T09:03:46.355Z,17.92
2022-10-22T09:06:21.491Z,14.70
2022-10-22T09:08:48.900Z,14.75
2022-10-22T09:11:37.103Z,15.10
2022-10-22T09:14:05.745Z,14.07
2022-10-22T09:16:42.142Z,12.60
2022-10-22T09:19:30.063Z,11.88
2022-10-22T09:22:13.247Z,11.60
2022-10-22T09:24:45.559Z,13.32
2022-10-22T09:27:28.644Z,13.07
2022-10-22T09:29:55.643Z,12.40
2022-10-22T09:32:22.998Z,11.98
2022-10-22T09:34:55.032Z,10.88
2022-10-22T09:37:26.842Z,10.48
2022-10-22T09:39:56.304Z,10.75
2022-10-22T09:42:24.047Z,10.68
2022-10-22T09:44:54.134Z,9.00
2022-10-22T09:47:50.005Z,9.60
2022-10-22T09:50:47.998Z,9.60
2022-10-22T09:53:31.512Z,9.77
2022-10-22T09:56:01.232Z,9.50
2022-10-22T09:58:28.558Z,9.70
2022-10-22T10:01:01.546Z,7.68
2022-10-22T10:03:32.983Z,8.43
2022-10-22T10:06:04.992Z,7.53
2022-10-22T10:08:33.833Z,6.80
2022-10-22T10:11:08.961Z,6.93
2022-10-22T10:13:52.004Z,7.38
2022-10-22T10:16:30.922Z,6.80
2022-10-22T10:19:18.719Z,5.55
2022-10-22T10:22:10.729Z,5.72
2022-10-22T10:25:14.159Z,6.20
2022-10-22T10:27:53.744Z,6.00
2022-10-22T10:30:24.378Z,5.57
2022-10-22T10:33:30.039Z,5.53
2022-10-22T10:36:07.514Z,6.28
2022-10-22T10:39:06.611Z,7.85
2022-10-22T10:41:54.150Z,6.68
2022-10-22T10:44:35.787Z,7.43
2022-10-22T10:47:41.755Z,5.50
2022-10-22T10:50:19.176Z,4.50
2022-10-22T10:52:52.328Z,3.65
2022-10-22T10:55:42.248Z,4.32
2022-10-22T10:58:21.423Z,4.13
2022-10-22T11:01:05.134Z,4.38
2022-10-22T11:04:01.418Z,3.15
2022-10-22T11:06:31.472Z,2.97
2022-10-22T11:09:04.347Z,3.35
2022-10-22T11:11:47.259Z,3.58
2022-10-22T11:14:19.907Z,3.00
2022-10-22T11:16:57.899Z,2.80
2022-10-22T11:19:57.796Z,2.83
2022-10-22T11:22:33.107Z,2.80
2022-10-22T11:25:03.267Z,2.83
2022-10-22T11:27:31.862Z,2.70
2022-10-22T11:30:20.297Z,2.60
2022-10-22T11:32:53.154Z,2.47
2022-10-22T11:35:28.155Z,2.53
2022-10-22T11:37:56.962Z,2.45
2022-10-22T11:40:36.154Z,2.45
2022-10-22T11:43:33.218Z,3.35
2022-10-22T11:46:29.040Z,3.03
2022-10-22T11:49:10.104Z,3.53
2022-10-22T11:51:40.087Z,2.60
2022-10-22T11:54:34.704Z,2.42
2022-10-22T11:57:20.578Z,2.17
2022-10-22T11:59:47.056Z,2.15
2022-10-22T12:02:29.042Z,2.33
2022-10-22T12:05:16.168Z,2.20
2022-10-22T12:08:01.335Z,2.30
2022-10-22T12:10:34.628Z,2.30
2022-10-22T12:13:28.751Z,2.45
2022-10-22T12:15:59.582Z,2.35
2022-10-22T12:18:32.762Z,2.22
2022-10-22T12:20:59.792Z,1.88
2022-10-22T12:23:31.778Z,2.30
2022-10-22T12:25:58.523Z,2.22
2022-10-22T12:28:25.084Z,2.83
2022-10-22T12:30:52.127Z,2.00
2022-10-22T12:33:21.763Z,1.80
2022-10-22T12:35:51.468Z,2.28
2022-10-22T12:38:21.911Z,1.83
2022-10-22T12:40:50.442Z,1.60
2022-10-22T12:43:20.081Z,2.30
2022-10-22T12:45:49.006Z,1.95
2022-10-22T12:48:19.496Z,2.13
2022-10-22T12:50:55.483Z,1.90
2022-10-22T12:53:42.815Z,1.80
2022-10-22T12:56:18.185Z,1.95
2022-10-22T13:01:43.134Z,1.95
2022-10-22T13:04:12.670Z,1.95
2022-10-22T13:06:45.092Z,2.05
2022-10-22T13:09:23.885Z,2.78
2022-10-22T13:12:04.976Z,2.50
2022-10-22T13:14:37.979Z,2.00
2022-10-22T13:17:17.485Z,2.38
2022-10-22T13:19:46.354Z,3.17
2022-10-22T13:22:34.851Z,3.95
2022-10-22T13:25:13.980Z,2.70
2022-10-22T13:27:48.543Z,2.95
2022-10-22T13:30:23.644Z,3.28
2022-10-22T13:32:55.798Z,2.88
2022-10-22T13:35:27.404Z,2.80
2022-10-22T13:37:54.082Z,2.88
2022-10-22T13:40:21.802Z,2.72
2022-10-22T13:42:48.778Z,2.75
2022-10-22T13:45:16.143Z,2.88
2022-10-22T13:47:48.481Z,2.97
2022-10-22T13:50:18.131Z,3.20
2022-10-22T13:52:53.031Z,2.95
2022-10-22T13:55:30.854Z,2.72
2022-10-22T13:58:11.179Z,2.92
2022-10-22T14:00:57.712Z,3.00
2022-10-22T14:03:30.415Z,2.50
2022-10-22T14:05:57.758Z,2.13
2022-10-22T14:08:26.090Z,2.20
2022-10-22T14:10:54.364Z,2.13
2022-10-22T14:13:21.755Z,2.13
2022-10-22T14:15:50.506Z,2.35
2022-10-22T14:18:25.677Z,2.50
2022-10-22T14:21:04.641Z,2.75
2022-10-22T14:23:32.767Z,2.08
2022-10-22T14:26:00.305Z,2.90
2022-10-22T14:28:27.563Z,2.10
2022-10-22T14:30:54.861Z,2.38
2022-10-22T14:33:29.019Z,2.42
2022-10-22T14:35:59.823Z,2.30
2022-10-22T14:38:26.904Z,2.60
2022-10-22T14:40:53.582Z,2.20
2022-10-22T14:43:29.412Z,2.13
2022-10-22T14:45:56.707Z,2.40
2022-10-22T14:48:23.834Z,2.55
2022-10-22T14:50:52.153Z,2.40
2022-10-22T14:53:18.752Z,2.30
2022-10-22T14:55:47.679Z,2.45
2022-10-22T14:58:14.486Z,2.60
2022-10-22T15:00:43.021Z,2.58
2022-10-22T15:03:11.417Z,2.65
2022-10-22T15:05:45.178Z,2.40
2022-10-22T15:08:13.627Z,2.30
2022-10-22T15:10:41.139Z,2.38
2022-10-22T15:13:07.859Z,2.33
2022-10-22T15:15:39.555Z,2.50
2022-10-22T15:18:07.110Z,2.55
2022-10-22T15:20:34.075Z,2.65
2022-10-22T15:23:00.663Z,2.70
2022-10-22T15:25:27.440Z,2.17
2022-10-22T15:27:58.515Z,2.40
2022-10-22T15:30:31.285Z,2.58
2022-10-22T15:32:58.275Z,2.70
2022-10-22T15:35:27.611Z,2.67
2022-10-22T15:37:54.141Z,2.55
2022-10-22T15:40:21.091Z,2.42
2022-10-22T15:42:47.603Z,2.38
2022-10-22T15:45:15.996Z,2.60
2022-10-22T15:47:47.660Z,2.80
2022-10-22T15:50:15.270Z,2.38
2022-10-22T15:52:41.807Z,2.92
2022-10-22T15:55:10.407Z,2.47
2022-10-22T15:57:38.408Z,2.97
2022-10-22T16:00:07.320Z,2.70
2022-10-22T16:02:34.363Z,2.63
2022-10-22T16:05:00.895Z,3.13
2022-10-22T16:07:27.451Z,2.10
2022-10-22T16:09:58.874Z,2.00
2022-10-22T16:12:25.899Z,2.35
2022-10-22T16:14:52.931Z,2.20
2022-10-22T16:17:19.537Z,2.50
2022-10-22T16:19:48.345Z,2.47
2022-10-22T16:22:15.976Z,2.20
2022-10-22T16:24:43.517Z,2.22
2022-10-22T16:27:10.454Z,2.33
2022-10-22T16:29:39.298Z,2.03
2022-10-22T16:32:06.268Z,2.17
2022-10-22T16:34:33.310Z,2.67
2022-10-22T16:36:59.961Z,2.97
2022-10-22T16:39:26.907Z,3.42
2022-10-22T16:41:53.450Z,3.35
2022-10-22T16:44:20.394Z,3.38
2022-10-22T16:46:47.155Z,5.65
2022-10-22T16:49:14.111Z,5.28
2022-10-22T16:51:40.674Z,4.28
2022-10-22T16:54:11.300Z,3.80
2022-10-22T16:56:39.526Z,3.08
2022-10-22T16:59:06.755Z,3.33
2022-10-22T17:01:37.941Z,3.15
2022-10-22T17:04:07.498Z,3.15
2022-10-22T17:06:34.138Z,3.90
2022-10-22T17:09:01.308Z,3.97
2022-10-22T17:11:30.028Z,3.92
2022-10-22T17:13:56.873Z,2.90
2022-10-22T17:16:25.075Z,3.30
2022-10-22T17:18:53.758Z,3.88
2022-10-22T17:21:21.624Z,3.70
2022-10-22T17:23:48.803Z,3.47
2022-10-22T17:26:21.928Z,2.83
2022-10-22T17:28:49.838Z,3.53
2022-10-22T17:31:26.113Z,3.10
2022-10-22T17:33:55.269Z,2.88
2022-10-22T17:36:23.386Z,2.88
2022-10-22T17:38:52.333Z,2.65
2022-10-22T17:41:23.950Z,3.58
2022-10-22T17:43:50.839Z,4.15
2022-10-22T17:46:28.796Z,3.50
2022-10-22T17:49:00.812Z,2.85
2022-10-22T17:51:29.339Z,3.00
2022-10-22T17:53:56.340Z,2.50
2022-10-22T17:56:26.064Z,2.35
2022-10-22T17:58:53.093Z,2.50
2022-10-22T18:01:26.143Z,2.30
2022-10-22T18:03:54.267Z,3.03
2022-10-22T18:06:21.217Z,3.55
2022-10-22T18:08:48.462Z,2.95
2022-10-22T18:11:19.267Z,2.55
2022-10-22T18:13:53.243Z,2.42
2022-10-22T18:16:20.544Z,3.13
2022-10-22T18:18:48.599Z,2.97
2022-10-22T18:21:18.780Z,2.90
2022-10-22T18:23:46.601Z,2.92
2022-10-22T18:26:14.279Z,2.88
2022-10-22T18:28:41.335Z,2.70
2022-10-22T18:31:11.027Z,4.22
2022-10-22T18:33:37.754Z,2.67
2022-10-22T18:36:10.618Z,2.75
2022-10-22T18:38:41.010Z,3.20
2022-10-22T18:41:09.998Z,3.80
2022-10-22T18:43:37.455Z,3.70
2022-10-22T18:46:06.826Z,3.22
2022-10-22T18:48:37.980Z,3.17
2022-10-22T18:51:08.771Z,3.58
2022-10-22T18:53:36.958Z,2.75
2022-10-22T18:56:08.142Z,3.08
2022-10-22T18:58:39.549Z,3.38
2022-10-22T19:01:12.100Z,3.60
2022-10-22T19:03:39.191Z,3.38
2022-10-22T19:06:06.058Z,3.35
2022-10-22T19:08:35.816Z,3.22
2022-10-22T19:11:02.962Z,3.13
2022-10-22T19:13:29.496Z,3.83
2022-10-22T19:16:02.152Z,2.95
2022-10-22T19:18:29.090Z,3.50
2022-10-22T19:21:03.294Z,3.90
2022-10-22T19:23:30.383Z,3.80
2022-10-22T19:26:06.643Z,3.90
2022-10-22T19:28:34.311Z,3.80
2022-10-22T19:31:01.009Z,3.58
2022-10-22T19:33:27.806Z,4.25
2022-10-22T19:35:54.352Z,3.80
2022-10-22T19:38:21.022Z,3.95
2022-10-22T19:40:47.680Z,4.60
2022-10-22T19:43:18.181Z,4.68
2022-10-22T19:45:45.636Z,3.88
2022-10-22T19:48:12.153Z,3.88
2022-10-22T19:50:39.352Z,4.18
2022-10-22T19:53:06.339Z,4.15
2022-10-22T19:55:32.891Z,3.50
2022-10-22T19:57:59.464Z,3.83
2022-10-22T20:00:27.891Z,5.03
2022-10-22T20:02:54.520Z,5.30
2022-10-22T20:07:53.486Z,3.97
2022-10-22T20:10:20.006Z,3.97
2022-10-22T20:12:46.531Z,4.40
2022-10-22T20:15:14.132Z,3.88
2022-10-22T20:17:41.315Z,4.45
2022-10-22T20:20:08.642Z,4.40
2022-10-22T20:22:35.641Z,4.32
2022-10-22T20:25:02.279Z,4.07
2022-10-22T20:27:28.858Z,4.40
2022-10-22T20:29:55.820Z,4.50
2022-10-22T20:32:24.041Z,3.88
2022-10-22T20:34:50.973Z,4.32
2022-10-22T20:37:17.520Z,4.13
2022-10-22T20:39:44.652Z,4.35
2022-10-22T20:42:11.221Z,4.32
2022-10-22T20:44:37.786Z,5.03
2022-10-22T20:47:04.437Z,4.47
2022-10-22T20:49:32.770Z,4.38
2022-10-22T20:51:59.452Z,4.78
2022-10-22T20:54:26.059Z,4.57
2022-10-22T20:56:53.194Z,4.47
2022-10-22T20:59:20.918Z,4.55
2022-10-22T21:01:50.308Z,4.75
2022-10-22T21:04:18.499Z,5.30
2022-10-22T21:06:45.823Z,4.97
2022-10-22T21:09:14.305Z,4.60
2022-10-22T21:11:43.361Z,5.00
2022-10-22T21:14:11.497Z,5.43
2022-10-22T21:16:42.097Z,4.80
2022-10-22T21:19:09.219Z,5.28
2022-10-22T21:21:35.854Z,5.05
2022-10-22T21:24:02.817Z,5.15
2022-10-22T21:26:29.379Z,6.13
2022-10-22T21:28:56.379Z,5.88
2022-10-22T21:31:25.809Z,6.15
2022-10-22T21:33:54.357Z,5.43
2022-10-22T21:36:23.232Z,5.32
2022-10-22T21:38:51.554Z,5.68
2022-10-22T21:41:20.412Z,6.40
2022-10-22T21:43:48.619Z,5.95
2022-10-22T21:46:21.139Z,6.05
2022-10-22T21:48:52.760Z,5.65
2022-10-22T21:51:20.174Z,5.72
2022-10-22T21:53:47.736Z,6.45
2022-10-22T21:56:20.318Z,6.00
2022-10-22T21:58:47.531Z,5.68
2022-10-22T22:01:17.055Z,6.53
2022-10-22T22:03:46.875Z,6.55
2022-10-22T22:06:16.845Z,7.00
2022-10-22T22:08:45.556Z,6.75
2022-10-22T22:11:15.868Z,6.35
2022-10-22T22:13:42.799Z,6.40
2022-10-22T22:16:13.165Z,6.10
2022-10-22T22:18:41.223Z,6.50
2022-10-22T22:21:14.683Z,5.78
2022-10-22T22:23:43.600Z,6.65
2022-10-22T22:26:11.421Z,6.15
2022-10-22T22:28:38.226Z,6.78
2022-10-22T22:31:14.222Z,5.95
2022-10-22T22:33:40.791Z,6.55
2022-10-22T22:36:08.287Z,5.88
2022-10-22T22:38:34.895Z,5.97
2022-10-22T22:41:02.559Z,5.55
2022-10-22T22:43:29.298Z,5.95
2022-10-22T22:46:04.540Z,6.05
2022-10-22T22:48:31.706Z,5.78
2022-10-22T22:51:00.403Z,5.88
2022-10-22T22:53:28.157Z,6.35
2022-10-22T22:56:09.741Z,6.35
2022-10-22T22:58:38.195Z,5.78
2022-10-22T23:01:27.403Z,6.32
2022-10-22T23:04:03.175Z,5.63
2022-10-22T23:06:33.171Z,6.07
2022-10-22T23:09:00.386Z,6.15
2022-10-22T23:11:28.121Z,5.85
2022-10-22T23:13:58.398Z,5.90
2022-10-22T23:16:28.185Z,5.90
2022-10-22T23:18:56.039Z,6.10
2022-10-22T23:21:28.564Z,6.15
2022-10-22T23:23:59.605Z,5.97
2022-10-22T23:26:32.998Z,6.35
2022-10-22T23:29:05.337Z,6.20
2022-10-22T23:31:32.325Z,6.38
2022-10-22T23:33:59.283Z,6.07
2022-10-22T23:36:26.376Z,5.50
2022-10-22T23:38:53.579Z,6.13
2022-10-22T23:41:20.151Z,5.93
2022-10-22T23:43:47.093Z,5.78
2022-10-22T23:46:14.272Z,5.28
2022-10-22T23:48:41.495Z,5.47
2022-10-22T23:51:11.086Z,5.03
2022-10-22T23:53:38.322Z,4.80
2022-10-22T23:56:10.863Z,4.80
2022-10-22T23:58:38.293Z,4.63
